Time;durP1;ratioP1;P1;durP2;ratioP2;P2;SDS_P1;SDS_P2;PMS_P1;PMS_P2;Temp;Humidity;BMP_temperature;BMP_pressure;BME280_temperature;BME280_humidity;BME280_pressure;Samples;Min_cycle;Max_cycle;Signal;HPM_P1;HPM_P2
2021/09/29 00:01:00;;;;;;;5.32;3.50;;;;;;;;;;5053798;28;20419;-54
2021/09/29 00:03:26;;;;;;;8.13;4.30;;;;;;;;;;5048407;28;20033;-54
2021/09/29 00:05:52;;;;;;;5.22;3.22;;;;;;;;;;5032793;28;20022;-54
2021/09/29 00:08:18;;;;;;;5.90;3.28;;;;;;;;;;5033490;28;20056;-54
2021/09/29 00:10:44;;;;;;;6.18;2.88;;;;;;;;;;5033677;28;20045;-54
2021/09/29 00:13:10;;;;;;;8.07;3.33;;;;;;;;;;5033400;28;20095;-54
2021/09/29 00:15:37;;;;;;;10.15;3.05;;;;;;;;;;5032490;28;20032;-54
2021/09/29 00:18:03;;;;;;;5.57;3.03;;;;;;;;;;5043695;28;20031;-54
2021/09/29 00:20:29;;;;;;;6.43;3.75;;;;;;;;;;5052857;28;20025;-54
2021/09/29 00:22:55;;;;;;;3.88;3.05;;;;;;;;;;5053222;28;20025;-54
2021/09/29 00:25:21;;;;;;;5.07;3.15;;;;;;;;;;5052650;28;20108;-54
2021/09/29 00:27:47;;;;;;;5.10;3.30;;;;;;;;;;5037286;28;20037;-54
2021/09/29 00:30:14;;;;;;;13.23;3.65;;;;;;;;;;5032921;28;20022;-54
2021/09/29 00:32:42;;;;;;;6.07;3.20;;;;;;;;;;5032838;28;20029;-54
2021/09/29 00:35:09;;;;;;;4.80;3.28;;;;;;;;;;5032313;28;20036;-54
2021/09/29 00:37:35;;;;;;;9.18;3.38;;;;;;;;;;5033168;28;20041;-54
2021/09/29 00:40:01;;;;;;;7.05;3.28;;;;;;;;;;5032966;28;20341;-55
2021/09/29 00:42:27;;;;;;;9.60;3.58;;;;;;;;;;5033004;28;20456;-54
2021/09/29 00:44:53;;;;;;;6.50;3.78;;;;;;;;;;5032072;28;20495;-54
2021/09/29 00:47:20;;;;;;;4.55;3.20;;;;;;;;;;5032923;28;20037;-54
2021/09/29 00:49:46;;;;;;;4.28;2.95;;;;;;;;;;5033139;28;20378;-54
2021/09/29 00:52:12;;;;;;;12.45;4.13;;;;;;;;;;5051571;28;20036;-54
2021/09/29 00:54:40;;;;;;;9.38;3.80;;;;;;;;;;5051906;28;20017;-54
2021/09/29 00:57:06;;;;;;;9.30;4.53;;;;;;;;;;5052433;28;20382;-54
2021/09/29 00:59:32;;;;;;;4.80;3.50;;;;;;;;;;5052834;28;20115;-54
2021/09/29 01:01:58;;;;;;;6.93;4.40;;;;;;;;;;5052265;28;20116;-53
2021/09/29 01:04:26;;;;;;;8.63;3.95;;;;;;;;;;5038929;28;20056;-54
2021/09/29 01:07:01;;;;;;;9.05;4.43;;;;;;;;;;5032633;28;20428;-54
2021/09/29 01:09:43;;;;;;;7.20;4.43;;;;;;;;;;5032859;28;20025;-54
2021/09/29 01:12:15;;;;;;;8.85;3.90;;;;;;;;;;5032511;28;20041;-54
2021/09/29 01:14:41;;;;;;;4.88;3.47;;;;;;;;;;5031337;28;20018;-54
2021/09/29 01:17:08;;;;;;;10.05;4.18;;;;;;;;;;5032790;28;20454;-54
2021/09/29 01:19:56;;;;;;;6.70;4.15;;;;;;;;;;5032729;28;20105;-54
2021/09/29 01:22:40;;;;;;;8.52;4.13;;;;;;;;;;5032817;28;20048;-54
2021/09/29 01:25:06;;;;;;;8.57;4.28;;;;;;;;;;5031773;28;20052;-54
2021/09/29 01:27:34;;;;;;;8.10;4.63;;;;;;;;;;5046084;28;20037;-54
2021/09/29 01:30:00;;;;;;;6.88;4.72;;;;;;;;;;5054000;28;20021;-54
2021/09/29 01:32:26;;;;;;;8.45;3.88;;;;;;;;;;5056465;28;20029;-54
2021/09/29 01:34:52;;;;;;;9.82;4.68;;;;;;;;;;5055292;28;20049;-54
2021/09/29 01:37:18;;;;;;;7.55;4.88;;;;;;;;;;5056397;28;20035;-54
2021/09/29 01:39:45;;;;;;;12.05;4.45;;;;;;;;;;5056358;28;20397;-54
2021/09/29 01:42:11;;;;;;;7.18;3.53;;;;;;;;;;5048281;28;20030;-53
2021/09/29 01:44:37;;;;;;;7.10;3.60;;;;;;;;;;5035018;28;20087;-54
2021/09/29 01:47:03;;;;;;;6.50;3.55;;;;;;;;;;5035949;28;20370;-54
2021/09/29 01:49:36;;;;;;;44.40;5.85;;;;;;;;;;5034606;28;20025;-54
2021/09/29 01:52:04;;;;;;;93.00;7.30;;;;;;;;;;5054466;28;20124;-54
2021/09/29 01:54:31;;;;;;;45.60;6.30;;;;;;;;;;5054327;28;20024;-54
2021/09/29 01:56:57;;;;;;;42.80;5.60;;;;;;;;;;5055868;28;20067;-54
2021/09/29 01:59:24;;;;;;;20.73;6.47;;;;;;;;;;5055698;28;20021;-54
2021/09/29 02:01:50;;;;;;;26.17;5.85;;;;;;;;;;5055479;28;20021;-54
2021/09/29 02:04:18;;;;;;;27.60;4.93;;;;;;;;;;5054914;28;20050;-53
2021/09/29 02:06:44;;;;;;;71.03;8.18;;;;;;;;;;5055199;28;20025;-53
2021/09/29 02:09:10;;;;;;;15.95;4.82;;;;;;;;;;5055602;28;20029;-54
2021/09/29 02:11:36;;;;;;;88.68;7.25;;;;;;;;;;5055704;28;20025;-54
2021/09/29 02:14:02;;;;;;;13.90;5.57;;;;;;;;;;5054721;28;20051;-54
2021/09/29 02:16:28;;;;;;;10.98;4.65;;;;;;;;;;5054916;28;20439;-54
2021/09/29 02:18:54;;;;;;;16.17;5.55;;;;;;;;;;5055679;28;20036;-54
2021/09/29 02:21:20;;;;;;;15.70;5.82;;;;;;;;;;5054299;28;20029;-54
2021/09/29 02:23:46;;;;;;;11.20;6.03;;;;;;;;;;5053701;28;20029;-54
2021/09/29 02:26:12;;;;;;;20.85;5.68;;;;;;;;;;5051646;28;20394;-54
2021/09/29 02:28:38;;;;;;;10.98;4.80;;;;;;;;;;5033989;28;20069;-54
2021/09/29 02:31:04;;;;;;;8.07;5.35;;;;;;;;;;5033932;28;20014;-54
2021/09/29 02:33:30;;;;;;;11.35;5.47;;;;;;;;;;5033593;28;20105;-54
2021/09/29 02:35:56;;;;;;;11.68;5.55;;;;;;;;;;5033619;28;20037;-54
2021/09/29 02:38:22;;;;;;;9.13;5.05;;;;;;;;;;5034111;28;20045;-54
2021/09/29 02:40:48;;;;;;;10.13;4.80;;;;;;;;;;5033022;28;20052;-54
2021/09/29 02:43:14;;;;;;;8.68;5.97;;;;;;;;;;5033601;28;20030;-54
2021/09/29 02:45:40;;;;;;;10.07;5.43;;;;;;;;;;5032498;28;20049;-53
2021/09/29 02:48:06;;;;;;;11.43;5.53;;;;;;;;;;5033546;28;20034;-53
2021/09/29 02:50:32;;;;;;;11.80;4.75;;;;;;;;;;5035700;28;20029;-54
2021/09/29 02:52:58;;;;;;;9.13;5.25;;;;;;;;;;5052124;28;20443;-54
2021/09/29 02:55:24;;;;;;;12.20;6.30;;;;;;;;;;5051245;28;20347;-54
2021/09/29 02:57:52;;;;;;;9.07;4.40;;;;;;;;;;5053248;28;20036;-54
2021/09/29 03:00:18;;;;;;;10.00;5.32;;;;;;;;;;5053471;28;20032;-54
2021/09/29 03:02:44;;;;;;;8.40;4.80;;;;;;;;;;5053978;28;20036;-54
2021/09/29 03:05:11;;;;;;;9.57;5.75;;;;;;;;;;5054117;28;20021;-54
2021/09/29 03:07:36;;;;;;;9.85;4.80;;;;;;;;;;5054224;28;20669;-54
2021/09/29 03:10:03;;;;;;;9.57;5.38;;;;;;;;;;5054400;28;20112;-54
2021/09/29 03:12:29;;;;;;;9.48;5.28;;;;;;;;;;5054052;28;20391;-53
2021/09/29 03:14:55;;;;;;;12.55;5.40;;;;;;;;;;5053424;28;20033;-54
2021/09/29 03:17:22;;;;;;;8.48;5.40;;;;;;;;;;5053979;28;20021;-53
2021/09/29 03:19:48;;;;;;;7.68;4.22;;;;;;;;;;5054084;28;20021;-53
2021/09/29 03:22:14;;;;;;;8.70;5.38;;;;;;;;;;5054509;28;20128;-54
2021/09/29 03:24:40;;;;;;;8.55;4.75;;;;;;;;;;5053347;28;20526;-54
2021/09/29 03:27:06;;;;;;;9.48;4.97;;;;;;;;;;5044166;28;20029;-54
2021/09/29 03:29:32;;;;;;;11.90;4.90;;;;;;;;;;5034055;28;20041;-54
2021/09/29 03:31:58;;;;;;;13.15;4.97;;;;;;;;;;5034077;28;20026;-54
2021/09/29 03:34:25;;;;;;;11.02;6.18;;;;;;;;;;5043738;28;20028;-54
2021/09/29 03:36:51;;;;;;;10.77;6.07;;;;;;;;;;5053831;28;20439;-54
2021/09/29 03:39:17;;;;;;;9.65;5.55;;;;;;;;;;5053986;28;20108;-53
2021/09/29 03:41:43;;;;;;;14.60;5.85;;;;;;;;;;5053502;28;20132;-54
2021/09/29 03:44:09;;;;;;;14.88;6.30;;;;;;;;;;5052921;28;20423;-53
2021/09/29 03:46:35;;;;;;;10.02;5.85;;;;;;;;;;5054041;28;20037;-54
2021/09/29 03:49:03;;;;;;;13.23;6.28;;;;;;;;;;5053839;28;20093;-53
2021/09/29 03:51:29;;;;;;;9.00;5.35;;;;;;;;;;5053387;28;20108;-53
2021/09/29 03:53:55;;;;;;;10.48;5.72;;;;;;;;;;5050929;28;20021;-53
2021/09/29 03:56:21;;;;;;;12.35;6.78;;;;;;;;;;5053478;28;20466;-53
2021/09/29 03:58:47;;;;;;;13.38;6.50;;;;;;;;;;5053844;28;20021;-53
2021/09/29 04:01:13;;;;;;;12.90;7.07;;;;;;;;;;5053671;28;20021;-53
2021/09/29 04:03:39;;;;;;;12.10;6.78;;;;;;;;;;5045777;28;20044;-54
2021/09/29 04:06:05;;;;;;;13.15;6.63;;;;;;;;;;5033623;28;20506;-54
2021/09/29 04:08:31;;;;;;;15.93;7.47;;;;;;;;;;5033857;28;20030;-53
2021/09/29 04:10:58;;;;;;;15.50;7.15;;;;;;;;;;5033211;28;20407;-53
2021/09/29 04:13:24;;;;;;;11.65;6.80;;;;;;;;;;5033830;28;20104;-54
2021/09/29 04:15:50;;;;;;;11.55;6.53;;;;;;;;;;5032483;28;20075;-53
2021/09/29 04:18:16;;;;;;;13.45;6.00;;;;;;;;;;5033468;28;20303;-54
2021/09/29 04:20:43;;;;;;;15.35;5.90;;;;;;;;;;5033393;28;20029;-54
2021/09/29 04:23:09;;;;;;;13.60;6.45;;;;;;;;;;5032773;28;20025;-54
2021/09/29 04:25:36;;;;;;;11.35;5.63;;;;;;;;;;5032721;28;20025;-54
2021/09/29 04:28:02;;;;;;;14.13;5.72;;;;;;;;;;5032783;28;20123;-54
2021/09/29 04:30:28;;;;;;;10.52;6.10;;;;;;;;;;5033063;28;20025;-54
2021/09/29 04:32:55;;;;;;;11.00;6.15;;;;;;;;;;5033505;28;20116;-53
2021/09/29 04:35:21;;;;;;;11.93;5.70;;;;;;;;;;5050136;28;20036;-54
2021/09/29 04:37:47;;;;;;;12.98;6.47;;;;;;;;;;5052789;28;20017;-54
2021/09/29 04:40:13;;;;;;;10.52;5.70;;;;;;;;;;5052582;28;20059;-54
2021/09/29 04:42:39;;;;;;;12.93;6.90;;;;;;;;;;5052763;28;20032;-53
2021/09/29 04:45:06;;;;;;;13.90;6.00;;;;;;;;;;5052226;28;20402;-53
2021/09/29 04:47:32;;;;;;;13.48;6.57;;;;;;;;;;5052675;28;20036;-54
2021/09/29 04:49:59;;;;;;;10.88;6.82;;;;;;;;;;5052215;28;20363;-54
2021/09/29 04:52:25;;;;;;;13.45;6.20;;;;;;;;;;5051451;28;20108;-53
2021/09/29 04:54:51;;;;;;;10.57;5.85;;;;;;;;;;5051895;28;20017;-54
2021/09/29 04:57:17;;;;;;;12.88;7.05;;;;;;;;;;5050493;28;20138;-53
2021/09/29 04:59:43;;;;;;;77.32;9.98;;;;;;;;;;5052370;28;20029;-54
2021/09/29 05:02:11;;;;;;;124.32;12.88;;;;;;;;;;5052514;28;20443;-53
2021/09/29 05:04:37;;;;;;;70.32;10.32;;;;;;;;;;5051186;28;20063;-53
2021/09/29 05:07:04;;;;;;;12.98;7.43;;;;;;;;;;5051875;28;20036;-53
2021/09/29 05:09:31;;;;;;;11.73;7.03;;;;;;;;;;5050767;28;20434;-53
2021/09/29 05:11:59;;;;;;;17.42;7.40;;;;;;;;;;5045463;28;20426;-54
2021/09/29 05:14:25;;;;;;;16.08;7.82;;;;;;;;;;5032100;28;20068;-54
2021/09/29 05:16:51;;;;;;;14.73;7.43;;;;;;;;;;5032524;28;20038;-53
2021/09/29 05:19:17;;;;;;;18.52;6.65;;;;;;;;;;5032561;28;20459;-53
2021/09/29 05:21:43;;;;;;;14.15;6.82;;;;;;;;;;5039127;28;20033;-53
2021/09/29 05:24:09;;;;;;;14.77;6.78;;;;;;;;;;5051881;28;20028;-53
2021/09/29 05:26:35;;;;;;;15.25;7.15;;;;;;;;;;5051780;28;20530;-53
2021/09/29 05:29:02;;;;;;;11.07;6.38;;;;;;;;;;5052170;28;20125;-53
2021/09/29 05:31:28;;;;;;;12.32;6.10;;;;;;;;;;5051918;28;20048;-54
2021/09/29 05:33:54;;;;;;;13.73;7.75;;;;;;;;;;5051262;28;20025;-54
2021/09/29 05:36:20;;;;;;;13.32;6.70;;;;;;;;;;5052008;28;20040;-54
2021/09/29 05:38:46;;;;;;;14.65;7.03;;;;;;;;;;5052615;28;20029;-53
2021/09/29 05:41:12;;;;;;;13.77;6.18;;;;;;;;;;5051760;28;20167;-54
2021/09/29 05:43:38;;;;;;;13.25;6.80;;;;;;;;;;5051950;28;20029;-54
2021/09/29 05:46:04;;;;;;;21.10;7.53;;;;;;;;;;5052181;28;20028;-53
2021/09/29 05:48:30;;;;;;;12.70;6.90;;;;;;;;;;5052430;28;20031;-54
2021/09/29 05:50:56;;;;;;;12.60;6.57;;;;;;;;;;5052146;28;20025;-54
2021/09/29 05:53:22;;;;;;;12.85;6.13;;;;;;;;;;5052368;28;20035;-52
2021/09/29 05:55:48;;;;;;;14.45;6.60;;;;;;;;;;5051327;28;20032;-52
2021/09/29 05:58:14;;;;;;;10.00;5.88;;;;;;;;;;5051876;28;20029;-52
2021/09/29 06:00:40;;;;;;;10.07;6.32;;;;;;;;;;5052689;28;20029;-52
2021/09/29 06:03:06;;;;;;;9.45;5.53;;;;;;;;;;5051877;28;20076;-52
2021/09/29 06:05:32;;;;;;;15.40;7.03;;;;;;;;;;5051520;28;20474;-52
2021/09/29 06:07:58;;;;;;;14.35;6.35;;;;;;;;;;5051853;28;20121;-52
2021/09/29 06:10:24;;;;;;;12.35;6.25;;;;;;;;;;5051932;28;20022;-52
2021/09/29 06:12:50;;;;;;;13.10;6.57;;;;;;;;;;5048499;28;20026;-52
2021/09/29 06:15:21;;;;;;;13.32;6.57;;;;;;;;;;5040592;28;20302;-52
2021/09/29 06:18:02;;;;;;;17.88;6.47;;;;;;;;;;5045605;28;20355;-52
2021/09/29 06:20:31;;;;;;;14.27;7.60;;;;;;;;;;5045421;28;20087;-52
2021/09/29 06:22:58;;;;;;;22.05;7.32;;;;;;;;;;5043366;28;20022;-53
2021/09/29 06:25:24;;;;;;;12.00;6.55;;;;;;;;;;5054556;28;20021;-52
2021/09/29 06:27:50;;;;;;;11.65;6.00;;;;;;;;;;5055521;28;20032;-52
2021/09/29 06:30:16;;;;;;;30.60;7.85;;;;;;;;;;5055298;28;20514;-52
2021/09/29 06:32:42;;;;;;;12.98;6.65;;;;;;;;;;5055136;28;20446;-51
2021/09/29 06:35:09;;;;;;;12.38;6.25;;;;;;;;;;5054516;28;20027;-51
2021/09/29 06:37:44;;;;;;;14.18;6.78;;;;;;;;;;5055220;28;20028;-51
2021/09/29 06:40:15;;;;;;;10.65;6.28;;;;;;;;;;5055456;28;20347;-51
2021/09/29 06:42:41;;;;;;;;;;;;;;;;;;5055708;28;20124;-51
2021/09/29 06:45:07;;;;;;;15.07;6.20;;;;;;;;;;5054410;28;19995;-51
2021/09/29 06:47:34;;;;;;;11.05;5.68;;;;;;;;;;5055236;28;20044;-52
2021/09/29 06:50:00;;;;;;;12.57;6.65;;;;;;;;;;5054619;28;20017;-51
2021/09/29 06:52:26;;;;;;;12.35;6.93;;;;;;;;;;5055069;28;20362;-51
2021/09/29 06:54:52;;;;;;;15.30;7.53;;;;;;;;;;5054286;28;20029;-52
2021/09/29 06:57:18;;;;;;;15.80;6.88;;;;;;;;;;5055091;28;20344;-51
2021/09/29 06:59:44;;;;;;;14.38;6.53;;;;;;;;;;5054707;28;20359;-51
2021/09/29 07:02:10;;;;;;;12.82;6.40;;;;;;;;;;5055168;28;20447;-51
2021/09/29 07:04:36;;;;;;;11.38;5.50;;;;;;;;;;5054121;28;20025;-52
2021/09/29 07:07:02;;;;;;;10.02;5.25;;;;;;;;;;5054464;28;20055;-52
2021/09/29 07:09:28;;;;;;;10.88;5.25;;;;;;;;;;5054628;28;20025;-52
2021/09/29 07:11:54;;;;;;;11.05;5.22;;;;;;;;;;5054658;28;20025;-51
2021/09/29 07:14:20;;;;;;;10.73;6.50;;;;;;;;;;5053975;28;20359;-52
2021/09/29 07:16:47;;;;;;;12.65;5.50;;;;;;;;;;5054572;28;20409;-52
2021/09/29 07:19:13;;;;;;;10.30;5.22;;;;;;;;;;5054371;28;20029;-52
2021/09/29 07:21:39;;;;;;;9.57;4.10;;;;;;;;;;5054686;28;20032;-52
2021/09/29 07:24:06;;;;;;;5.65;3.65;;;;;;;;;;5053658;28;20071;-52
2021/09/29 07:26:33;;;;;;;8.95;4.60;;;;;;;;;;5054025;28;20037;-52
2021/09/29 07:28:59;;;;;;;8.98;4.18;;;;;;;;;;5053915;28;20033;-52
2021/09/29 07:31:27;;;;;;;8.38;4.53;;;;;;;;;;5054156;28;20473;-52
2021/09/29 07:33:53;;;;;;;9.18;4.63;;;;;;;;;;5053374;28;20025;-52
2021/09/29 07:36:19;;;;;;;7.82;4.28;;;;;;;;;;5054207;28;20462;-52
2021/09/29 07:38:45;;;;;;;5.95;3.90;;;;;;;;;;5053850;28;20032;-51
2021/09/29 07:41:11;;;;;;;10.40;4.72;;;;;;;;;;5054028;28;20188;-52
2021/09/29 07:43:37;;;;;;;10.55;4.30;;;;;;;;;;5053092;28;20021;-52
2021/09/29 07:46:04;;;;;;;9.25;4.55;;;;;;;;;;5050543;28;20074;-52
2021/09/29 07:48:30;;;;;;;6.68;4.07;;;;;;;;;;5053458;28;20033;-52
2021/09/29 07:50:56;;;;;;;14.55;4.68;;;;;;;;;;5053790;28;20025;-52
2021/09/29 07:53:25;;;;;;;6.22;3.60;;;;;;;;;;5053645;28;20029;-52
2021/09/29 07:55:53;;;;;;;6.90;4.05;;;;;;;;;;5053592;28;20055;-52
2021/09/29 07:58:19;;;;;;;5.13;3.78;;;;;;;;;;5053547;28;20056;-52
2021/09/29 08:00:45;;;;;;;7.60;3.78;;;;;;;;;;5053840;28;20343;-52
2021/09/29 08:03:11;;;;;;;8.10;3.50;;;;;;;;;;5050577;28;20048;-51
2021/09/29 08:05:37;;;;;;;7.57;3.70;;;;;;;;;;5032934;28;20029;-52
2021/09/29 08:08:03;;;;;;;5.55;3.67;;;;;;;;;;5033550;28;20107;-51
2021/09/29 08:10:29;;;;;;;6.50;3.55;;;;;;;;;;5033950;28;20459;-52
2021/09/29 08:12:55;;;;;;;4.65;2.75;;;;;;;;;;5033758;28;20029;-52
2021/09/29 08:15:22;;;;;;;5.38;2.97;;;;;;;;;;5032464;28;20359;-51
2021/09/29 08:17:48;;;;;;;3.42;2.70;;;;;;;;;;5033525;28;20459;-52
2021/09/29 08:20:17;;;;;;;4.22;3.35;;;;;;;;;;5033219;28;20130;-52
2021/09/29 08:22:46;;;;;;;4.97;2.72;;;;;;;;;;5033327;28;20482;-52
2021/09/29 08:25:22;;;;;;;8.20;3.13;;;;;;;;;;5032657;28;20091;-52
2021/09/29 08:37:45;;;;;;;4.30;2.72;;;;;;;;;;5033276;28;20036;-52
2021/09/29 08:40:21;;;;;;;3.22;2.00;;;;;;;;;;5032023;28;20356;-51
2021/09/29 08:43:14;;;;;;;3.65;2.08;;;;;;;;;;5033547;28;20065;-51
2021/09/29 08:45:58;;;;;;;4.57;2.25;;;;;;;;;;5031937;28;20471;-52
2021/09/29 08:48:57;;;;;;;7.53;1.67;;;;;;;;;;5033540;28;20037;-52
2021/09/29 08:54:02;;;;;;;4.30;1.73;;;;;;;;;;5032437;28;20044;-51
2021/09/29 09:16:11;;;;;;;3.25;1.58;;;;;;;;;;5032820;28;20037;-52
2021/09/29 09:18:47;;;;;;;3.20;1.38;;;;;;;;;;5032834;28;20100;-51
2021/09/29 09:21:16;;;;;;;1.30;1.20;;;;;;;;;;5032805;28;20025;-51
2021/09/29 09:23:43;;;;;;;4.88;1.25;;;;;;;;;;5031863;28;20379;-52
2021/09/29 09:26:20;;;;;;;3.38;1.25;;;;;;;;;;5032100;28;20087;-52
2021/09/29 09:28:47;;;;;;;3.72;1.15;;;;;;;;;;5032654;28;20044;-52
2021/09/29 09:31:15;;;;;;;1.83;1.00;;;;;;;;;;5032842;28;20076;-52
2021/09/29 09:33:50;;;;;;;2.33;0.98;;;;;;;;;;5032040;28;20084;-52
2021/09/29 09:36:47;;;;;;;1.65;0.88;;;;;;;;;;5032316;28;20463;-51
2021/09/29 09:39:16;;;;;;;2.83;1.20;;;;;;;;;;5049553;28;20045;-52
2021/09/29 09:41:48;;;;;;;2.70;1.38;;;;;;;;;;5049997;28;20028;-51
2021/09/29 09:44:22;;;;;;;1.45;0.88;;;;;;;;;;5048905;28;20484;-52
2021/09/29 09:47:09;;;;;;;3.53;1.33;;;;;;;;;;5049723;28;20037;-52
2021/09/29 09:49:49;;;;;;;1.23;1.00;;;;;;;;;;5049742;28;20386;-51
2021/09/29 09:52:34;;;;;;;0.80;0.80;;;;;;;;;;5053601;28;20120;-52
2021/09/29 09:55:04;;;;;;;2.35;1.08;;;;;;;;;;5052592;28;20431;-52
2021/09/29 09:57:33;;;;;;;2.03;0.93;;;;;;;;;;5053385;28;20017;-52
2021/09/29 09:59:59;;;;;;;2.50;0.80;;;;;;;;;;5053134;28;20083;-52
2021/09/29 10:02:25;;;;;;;3.63;1.27;;;;;;;;;;5053475;28;20246;-52
2021/09/29 10:04:51;;;;;;;3.53;1.10;;;;;;;;;;5052325;28;20521;-52
2021/09/29 10:07:17;;;;;;;4.00;1.00;;;;;;;;;;5053320;28;20037;-51
2021/09/29 10:09:59;;;;;;;2.67;1.10;;;;;;;;;;5053069;28;20071;-52
2021/09/29 10:28:35;;;;;;;0.75;0.75;;;;;;;;;;5035431;28;20049;-51
2021/09/29 10:33:45;;;;;;;1.08;0.73;;;;;;;;;;5035160;28;20029;-52
2021/09/29 10:36:26;;;;;;;3.92;0.88;;;;;;;;;;5035369;28;20025;-52
2021/09/29 10:44:30;;;;;;;2.80;0.93;;;;;;;;;;5034995;28;20481;-52
2021/09/29 10:52:53;;;;;;;0.80;0.80;;;;;;;;;;5035242;28;20026;-52
2021/09/29 11:04:24;;;;;;;0.47;0.47;;;;;;;;;;5033226;28;20038;-52
2021/09/29 11:07:01;;;;;;;3.03;0.70;;;;;;;;;;5034669;28;20406;-52
2021/09/29 11:09:48;;;;;;;2.00;0.85;;;;;;;;;;5034946;28;20033;-52
2021/09/29 11:29:17;;;;;;;1.92;0.70;;;;;;;;;;5034609;28;20495;-52
2021/09/29 11:31:48;;;;;;;2.03;0.80;;;;;;;;;;5034499;28;20033;-52
2021/09/29 11:34:22;;;;;;;1.42;0.60;;;;;;;;;;5033422;28;20443;-52
2021/09/29 11:37:18;;;;;;;2.47;0.90;;;;;;;;;;5034561;28;20025;-51
2021/09/29 11:40:05;;;;;;;8.32;1.08;;;;;;;;;;5034371;28;20049;-52
2021/09/29 12:07:57;;;;;;;1.67;0.90;;;;;;;;;;5011542;28;20034;-52
2021/09/29 12:08:17;;;;;;;3.50;1.10;;;;;;;;;;5031205;28;20080;-52
2021/09/29 12:11:08;;;;;;;1.00;0.90;;;;;;;;;;5030941;28;20451;-51
2021/09/29 12:13:42;;;;;;;0.70;0.70;;;;;;;;;;5030080;28;20029;-52
2021/09/29 12:16:08;;;;;;;1.10;0.65;;;;;;;;;;5030904;28;20144;-52
2021/09/29 12:18:35;;;;;;;0.88;0.73;;;;;;;;;;5031339;28;20138;-52
2021/09/29 12:21:01;;;;;;;3.13;0.98;;;;;;;;;;5030876;28;20076;-52
2021/09/29 12:23:27;;;;;;;2.42;0.80;;;;;;;;;;5030366;28;20108;-52
2021/09/29 12:26:16;;;;;;;3.40;0.95;;;;;;;;;;5032627;28;20112;-52
2021/09/29 12:29:31;;;;;;;3.65;1.10;;;;;;;;;;5033422;28;20041;-52
2021/09/29 12:31:47;;;;;;;5.38;0.73;;;;;;;;;;5032304;28;20029;-52
2021/09/29 12:34:30;;;;;;;5.20;1.15;;;;;;;;;;5032764;28;20236;-51
2021/09/29 12:37:07;;;;;;;3.55;0.70;;;;;;;;;;5032810;28;20038;-52
2021/09/29 12:39:33;;;;;;;0.75;0.70;;;;;;;;;;5033360;28;20444;-52
2021/09/29 12:41:59;;;;;;;1.65;0.75;;;;;;;;;;5033065;28;20025;-52
2021/09/29 12:44:25;;;;;;;0.68;0.68;;;;;;;;;;5032628;28;20033;-53
2021/09/29 12:47:06;;;;;;;1.02;0.82;;;;;;;;;;5032284;28;20100;-52
2021/09/29 12:49:32;;;;;;;4.57;0.57;;;;;;;;;;5033118;28;20057;-51
2021/09/29 12:52:03;;;;;;;1.25;0.70;;;;;;;;;;5032690;28;20393;-51
2021/09/29 12:54:30;;;;;;;0.80;0.80;;;;;;;;;;5032352;28;20056;-52
2021/09/29 12:56:56;;;;;;;1.38;0.60;;;;;;;;;;5033151;28;20029;-52
2021/09/29 12:59:22;;;;;;;1.30;0.70;;;;;;;;;;5032677;28;20022;-52
2021/09/29 13:01:48;;;;;;;7.32;0.95;;;;;;;;;;5032548;28;20538;-52
2021/09/29 13:04:14;;;;;;;0.73;0.50;;;;;;;;;;5044085;28;20111;-52
2021/09/29 13:06:41;;;;;;;3.05;0.60;;;;;;;;;;5052603;28;20035;-52
2021/09/29 13:09:07;;;;;;;2.38;1.02;;;;;;;;;;5052844;28;20174;-52
2021/09/29 13:11:33;;;;;;;2.22;0.80;;;;;;;;;;5052804;28;20041;-52
2021/09/29 13:13:59;;;;;;;0.85;0.60;;;;;;;;;;5051645;28;20486;-52
2021/09/29 13:16:26;;;;;;;5.13;0.90;;;;;;;;;;5052662;28;20036;-52
2021/09/29 13:21:39;;;;;;;3.28;0.80;;;;;;;;;;5052769;28;20048;-52
2021/09/29 13:24:14;;;;;;;1.30;0.52;;;;;;;;;;5051928;28;20032;-52
2021/09/29 13:37:17;;;;;;;6.32;0.73;;;;;;;;;;5056617;28;20055;-52
2021/09/29 13:39:44;;;;;;;7.65;1.10;;;;;;;;;;5056362;28;20458;-52
2021/09/29 13:42:10;;;;;;;2.50;0.63;;;;;;;;;;5056424;28;20075;-52
2021/09/29 13:44:36;;;;;;;5.47;0.80;;;;;;;;;;5055496;28;20029;-51
2021/09/29 13:47:03;;;;;;;1.95;0.70;;;;;;;;;;5055678;28;20040;-52
2021/09/29 13:49:29;;;;;;;0.50;0.50;;;;;;;;;;5056316;28;20017;-52
2021/09/29 13:51:57;;;;;;;1.38;0.80;;;;;;;;;;5055960;28;20461;-51
2021/09/29 13:54:25;;;;;;;2.58;0.70;;;;;;;;;;5055720;28;20036;-52
2021/09/29 14:29:05;;;;;;;0.75;0.60;;;;;;;;;;5035740;28;20555;-51
2021/09/29 14:31:38;;;;;;;2.92;0.80;;;;;;;;;;5035405;28;20101;-52
2021/09/29 14:34:04;;;;;;;2.25;0.90;;;;;;;;;;5034753;28;20133;-52
2021/09/29 14:36:30;;;;;;;0.60;0.60;;;;;;;;;;5035687;28;20038;-52
2021/09/29 14:38:57;;;;;;;0.50;0.50;;;;;;;;;;5035587;28;20030;-52
2021/09/29 14:41:22;;;;;;;2.05;0.50;;;;;;;;;;5035510;28;20029;-52
2021/09/29 14:43:49;;;;;;;4.63;0.90;;;;;;;;;;5033964;28;20375;-52
2021/09/29 14:46:14;;;;;;;1.60;1.05;;;;;;;;;;5035727;28;20021;-52
2021/09/29 14:48:40;;;;;;;2.10;0.57;;;;;;;;;;5034835;28;20033;-53
2021/09/29 14:51:08;;;;;;;1.35;0.68;;;;;;;;;;5034851;28;20455;-52
2021/09/29 14:53:35;;;;;;;5.22;1.00;;;;;;;;;;5033615;28;20359;-52
2021/09/29 14:56:01;;;;;;;5.93;0.80;;;;;;;;;;5035155;28;20022;-53
2021/09/29 14:58:27;;;;;;;5.82;0.82;;;;;;;;;;5035017;28;20045;-53
2021/09/29 15:00:54;;;;;;;0.55;0.55;;;;;;;;;;5035234;28;20044;-53
2021/09/29 15:03:22;;;;;;;1.20;0.50;;;;;;;;;;5034990;28;20025;-52
2021/09/29 15:05:48;;;;;;;4.47;0.80;;;;;;;;;;5034238;28;20030;-53
2021/09/29 15:08:14;;;;;;;3.53;0.55;;;;;;;;;;5054481;28;20073;-53
2021/09/29 15:10:40;;;;;;;1.85;0.70;;;;;;;;;;5054332;28;20026;-52
2021/09/29 15:13:10;;;;;;;1.80;1.02;;;;;;;;;;5054895;28;20032;-53
2021/09/29 15:15:45;;;;;;;;;;;;;;;;;;5054289;28;20446;-53
2021/09/29 15:18:15;;;;;;;0.50;0.50;;;;;;;;;;5054836;28;19958;-53
2021/09/29 15:31:28;;;;;;;1.95;0.98;;;;;;;;;;5052088;28;20034;-52
2021/09/29 15:47:47;;;;;;;0.40;0.40;;;;;;;;;;5031456;28;20055;-52
2021/09/29 15:58:14;;;;;;;0.75;0.60;;;;;;;;;;5034212;28;20033;-52
2021/09/29 16:03:13;;;;;;;0.50;0.50;;;;;;;;;;5033922;28;20033;-53
2021/09/29 16:06:11;;;;;;;0.68;0.50;;;;;;;;;;5033240;28;20033;-52
2021/09/29 16:08:36;;;;;;;59.97;2.20;;;;;;;;;;5033217;28;20045;-52
2021/09/29 16:16:14;;;;;;;1.98;1.05;;;;;;;;;;5043448;28;20030;-52
2021/09/29 16:19:22;;;;;;;0.82;0.65;;;;;;;;;;5042375;28;20051;-53
2021/09/29 16:32:20;;;;;;;0.30;0.30;;;;;;;;;;5031994;28;20428;-52
2021/09/29 16:34:49;;;;;;;0.32;0.32;;;;;;;;;;5041904;28;20512;-52
2021/09/29 16:37:15;;;;;;;4.03;0.60;;;;;;;;;;5041812;28;20398;-53
2021/09/29 16:39:43;;;;;;;1.52;0.50;;;;;;;;;;5046182;28;20025;-52
2021/09/29 16:42:09;;;;;;;0.55;0.50;;;;;;;;;;5049461;28;20044;-52
2021/09/29 16:44:35;;;;;;;4.32;0.32;;;;;;;;;;5041901;28;20492;-52
2021/09/29 16:47:02;;;;;;;0.55;0.55;;;;;;;;;;5043223;28;20029;-52
2021/09/29 16:49:28;;;;;;;0.98;0.40;;;;;;;;;;5041190;28;20470;-52
2021/09/29 16:52:02;;;;;;;1.08;0.52;;;;;;;;;;5043706;28;20151;-52
2021/09/29 16:54:29;;;;;;;0.50;0.47;;;;;;;;;;5039725;28;20029;-52
2021/09/29 16:56:55;;;;;;;0.50;0.50;;;;;;;;;;5041767;28;20363;-52
2021/09/29 17:01:57;;;;;;;1.58;0.50;;;;;;;;;;5042601;28;20122;-52
2021/09/29 17:04:24;;;;;;;0.63;0.50;;;;;;;;;;5042198;28;20025;-52
2021/09/29 17:06:50;;;;;;;0.77;0.73;;;;;;;;;;5040837;28;20021;-52
2021/09/29 17:09:16;;;;;;;2.38;0.88;;;;;;;;;;5041491;28;20017;-52
2021/09/29 17:11:42;;;;;;;1.42;0.80;;;;;;;;;;5041872;28;20025;-52
2021/09/29 17:14:09;;;;;;;0.90;0.50;;;;;;;;;;5042645;28;20587;-52
2021/09/29 17:16:35;;;;;;;1.70;0.90;;;;;;;;;;5041729;28;20025;-52
2021/09/29 17:19:04;;;;;;;1.63;0.80;;;;;;;;;;5043543;28;20029;-52
2021/09/29 17:21:30;;;;;;;1.23;0.63;;;;;;;;;;5041746;28;20443;-52
2021/09/29 17:23:57;;;;;;;1.45;0.80;;;;;;;;;;5040607;28;20026;-52
2021/09/29 17:26:23;;;;;;;1.85;0.75;;;;;;;;;;5042441;28;20033;-53
2021/09/29 17:28:57;;;;;;;0.88;0.68;;;;;;;;;;5040692;28;20107;-52
2021/09/29 17:31:31;;;;;;;0.60;0.60;;;;;;;;;;5037829;28;20025;-52
2021/09/29 17:52:37;;;;;;;0.43;0.43;;;;;;;;;;5031896;28;20375;-52
2021/09/29 17:55:05;;;;;;;0.30;0.30;;;;;;;;;;5031629;28;20025;-52
2021/09/29 17:57:31;;;;;;;0.50;0.45;;;;;;;;;;5032565;28;20017;-52
2021/09/29 17:59:57;;;;;;;0.70;0.68;;;;;;;;;;5032180;28;20363;-52
2021/09/29 18:02:33;;;;;;;1.45;0.52;;;;;;;;;;5032077;28;20022;-53
2021/09/29 18:05:03;;;;;;;1.30;0.50;;;;;;;;;;5032001;28;20028;-52
2021/09/29 18:07:37;;;;;;;0.75;0.50;;;;;;;;;;5032315;28;20045;-53
2021/09/29 18:10:03;;;;;;;2.42;1.30;;;;;;;;;;5032516;28;20097;-52
2021/09/29 18:12:29;;;;;;;2.22;0.60;;;;;;;;;;5032619;28;20363;-53
2021/09/29 18:14:55;;;;;;;0.60;0.60;;;;;;;;;;5052936;28;20017;-52
2021/09/29 18:17:21;;;;;;;4.97;0.85;;;;;;;;;;5055965;28;20025;-52
2021/09/29 18:19:47;;;;;;;3.50;0.80;;;;;;;;;;5055606;28;20409;-52
2021/09/29 18:22:13;;;;;;;1.45;0.77;;;;;;;;;;5055603;28;20139;-52
2021/09/29 18:24:41;;;;;;;1.05;0.68;;;;;;;;;;5055167;28;20021;-52
2021/09/29 18:27:07;;;;;;;0.55;0.55;;;;;;;;;;5055524;28;20039;-53
2021/09/29 18:29:33;;;;;;;0.70;0.60;;;;;;;;;;5056003;28;20040;-52
2021/09/29 18:32:01;;;;;;;0.68;0.50;;;;;;;;;;5055390;28;20082;-52
2021/09/29 18:34:28;;;;;;;0.50;0.50;;;;;;;;;;5055161;28;20036;-52